Time;durP1;ratioP1;P1;durP2;ratioP2;P2;SDS_P1;SDS_P2;PMS_P1;PMS_P2;Temp;Humidity;BMP_temperature;BMP_pressure;BME280_temperature;BME280_humidity;BME280_pressure;Samples;Min_cycle;Max_cycle;Signal;HPM_P1;HPM_P2
2021/01/09 00:01:21;;;;;;;7.70;5.40;;;2.70;99.90;;;;;;4978211;28;20434;-73
2021/01/09 00:03:49;;;;;;;21.43;9.50;;;2.70;99.90;;;;;;4976695;28;20487;-73
2021/01/09 00:06:16;;;;;;;12.60;7.33;;;2.80;99.90;;;;;;4976546;28;20465;-69
2021/01/09 00:08:42;;;;;;;7.97;6.07;;;2.90;99.90;;;;;;4975594;28;20437;-72
2021/01/09 00:11:09;;;;;;;7.20;6.50;;;3.00;99.90;;;;;;4974682;28;20853;-75
2021/01/09 00:13:36;;;;;;;12.37;7.80;;;3.00;99.90;;;;;;4974123;28;20482;-73
2021/01/09 00:16:06;;;;;;;6.97;5.10;;;2.80;99.90;;;;;;4969845;28;21158;-71
2021/01/09 00:18:33;;;;;;;10.27;6.40;;;2.80;99.90;;;;;;4976893;28;20484;-72
2021/01/09 00:21:00;;;;;;;9.67;8.07;;;2.70;99.90;;;;;;4969686;28;20434;-72
2021/01/09 00:23:27;;;;;;;5.60;4.97;;;2.60;99.90;;;;;;4973988;28;20489;-71
2021/01/09 00:25:53;;;;;;;8.60;5.80;;;2.50;99.90;;;;;;4972961;28;20445;-73
2021/01/09 00:28:20;;;;;;;12.73;5.80;;;2.30;99.90;;;;;;4981057;28;20483;-72
2021/01/09 00:30:47;;;;;;;22.37;6.87;;;2.50;99.90;;;;;;4973938;28;20448;-72
2021/01/09 00:33:13;;;;;;;6.90;5.13;;;2.50;99.90;;;;;;4961281;28;20983;-70
2021/01/09 00:35:40;;;;;;;9.60;7.50;;;2.50;99.90;;;;;;4969129;28;20981;-73
2021/01/09 00:38:08;;;;;;;7.60;6.17;;;2.60;99.90;;;;;;4974217;28;20917;-72
2021/01/09 00:40:34;;;;;;;13.03;5.97;;;2.70;99.90;;;;;;4974731;28;20468;-72
2021/01/09 00:43:01;;;;;;;14.97;7.30;;;2.70;99.90;;;;;;4976071;28;20429;-75
2021/01/09 00:45:28;;;;;;;6.47;4.93;;;2.70;99.90;;;;;;4979021;28;20459;-71
2021/01/09 00:47:55;;;;;;;9.87;8.63;;;2.70;99.90;;;;;;4972385;28;20487;-68
2021/01/09 00:50:22;;;;;;;9.23;6.00;;;2.70;99.90;;;;;;4960234;28;20534;-73
2021/01/09 00:52:49;;;;;;;17.47;9.27;;;2.80;99.90;;;;;;4957056;28;20449;-73
2021/01/09 00:55:16;;;;;;;13.73;7.37;;;2.80;99.90;;;;;;4974635;28;20478;-71
2021/01/09 00:57:43;;;;;;;12.00;8.00;;;2.80;99.90;;;;;;4979248;28;20445;-72
2021/01/09 01:00:10;;;;;;;6.60;4.63;;;2.90;99.90;;;;;;4978264;28;20526;-71
2021/01/09 01:02:37;;;;;;;12.80;5.20;;;2.80;99.90;;;;;;4973019;28;20499;-72
2021/01/09 01:05:04;;;;;;;11.10;7.00;;;2.50;99.90;;;;;;4972564;28;20489;-71
2021/01/09 01:07:34;;;;;;;9.10;6.93;;;2.50;99.90;;;;;;4975591;28;20560;-71
2021/01/09 01:10:01;;;;;;;7.87;5.40;;;2.50;99.90;;;;;;4973694;28;20864;-73
2021/01/09 01:12:28;;;;;;;6.73;6.10;;;2.60;99.90;;;;;;4972834;28;20496;-71
2021/01/09 01:14:55;;;;;;;9.70;7.10;;;2.70;99.90;;;;;;4971049;28;20519;-71
2021/01/09 01:17:22;;;;;;;12.87;8.40;;;2.60;99.90;;;;;;4975925;28;20517;-74
2021/01/09 01:19:48;;;;;;;11.90;7.60;;;2.50;99.90;;;;;;4961269;28;21033;-72
2021/01/09 01:22:15;;;;;;;10.20;8.40;;;2.60;99.90;;;;;;4973570;28;20444;-70
2021/01/09 01:24:42;;;;;;;8.43;6.10;;;2.80;99.90;;;;;;4972235;28;20581;-73
2021/01/09 01:27:08;;;;;;;8.57;6.30;;;2.90;99.90;;;;;;4977576;28;20777;-74
2021/01/09 01:29:36;;;;;;;11.80;7.43;;;2.90;99.90;;;;;;4973720;28;20441;-69
2021/01/09 01:32:02;;;;;;;5.13;4.63;;;2.80;99.90;;;;;;4969280;28;20552;-72
2021/01/09 01:34:29;;;;;;;10.80;7.20;;;2.60;99.90;;;;;;4973380;28;20492;-69
2021/01/09 01:36:56;;;;;;;12.27;5.83;;;2.60;99.90;;;;;;4974263;28;20494;-75
2021/01/09 01:39:22;;;;;;;10.27;8.23;;;2.70;99.90;;;;;;4971605;28;21107;-71
2021/01/09 01:41:49;;;;;;;16.83;9.30;;;2.80;99.90;;;;;;4973233;28;20677;-73
2021/01/09 01:44:16;;;;;;;9.80;6.20;;;2.90;99.90;;;;;;4954242;28;20515;-74
2021/01/09 01:46:45;;;;;;;9.73;6.93;;;2.80;99.90;;;;;;4972910;28;20442;-70
2021/01/09 01:49:12;;;;;;;9.03;5.47;;;2.80;99.90;;;;;;4994748;28;20452;-72
2021/01/09 01:51:38;;;;;;;10.53;7.23;;;2.80;99.90;;;;;;4974302;28;20528;-69
2021/01/09 01:54:05;;;;;;;7.73;4.73;;;2.90;99.90;;;;;;4975303;28;20494;-72
2021/01/09 01:56:32;;;;;;;15.43;6.07;;;2.80;99.90;;;;;;4979281;28;20478;-73
2021/01/09 01:58:59;;;;;;;15.00;9.33;;;2.80;99.90;;;;;;4963771;28;20495;-70
2021/01/09 02:01:26;;;;;;;13.50;6.83;;;2.70;99.90;;;;;;4981939;28;20780;-71
2021/01/09 02:03:54;;;;;;;12.60;8.50;;;2.60;99.90;;;;;;4976217;28;20510;-71
2021/01/09 02:06:26;;;;;;;11.53;6.87;;;2.50;99.90;;;;;;4975704;28;21624;-71
2021/01/09 02:09:02;;;;;;;12.30;6.57;;;2.50;99.90;;;;;;4979946;28;20486;-70
2021/01/09 02:11:35;;;;;;;8.17;6.03;;;2.50;99.90;;;;;;4977182;28;20440;-74
2021/01/09 02:14:04;;;;;;;9.40;6.20;;;2.60;99.90;;;;;;4979700;28;20489;-70
2021/01/09 02:16:32;;;;;;;6.63;4.90;;;2.60;99.90;;;;;;4974355;28;21118;-73
2021/01/09 02:19:01;;;;;;;9.60;5.43;;;2.60;99.90;;;;;;4980468;28;20528;-72
2021/01/09 02:21:35;;;;;;;16.07;8.63;;;2.60;99.90;;;;;;4977154;28;20800;-72
2021/01/09 02:24:08;;;;;;;9.90;8.57;;;2.60;99.90;;;;;;4974656;28;20461;-70
2021/01/09 02:26:35;;;;;;;13.63;7.10;;;2.50;99.90;;;;;;4981872;28;20576;-68
2021/01/09 02:29:02;;;;;;;15.00;7.87;;;2.50;99.90;;;;;;4974355;28;21724;-73
2021/01/09 02:31:28;;;;;;;12.07;7.97;;;2.60;99.90;;;;;;4976591;28;20468;-73
2021/01/09 02:33:55;;;;;;;11.93;8.00;;;2.60;99.90;;;;;;4976133;28;24064;-73
2021/01/09 02:36:22;;;;;;;12.23;7.37;;;2.80;99.90;;;;;;4975086;28;20493;-74
2021/01/09 02:38:49;;;;;;;12.63;7.40;;;2.90;99.90;;;;;;4973826;28;21742;-73
2021/01/09 02:41:17;;;;;;;22.57;7.97;;;2.80;99.90;;;;;;4978021;28;20967;-71
2021/01/09 02:43:43;;;;;;;25.07;8.93;;;2.80;99.90;;;;;;4974913;28;20552;-73
2021/01/09 02:46:10;;;;;;;12.30;8.33;;;2.80;99.90;;;;;;4979254;28;20833;-71
2021/01/09 02:48:37;;;;;;;18.93;8.20;;;2.80;99.90;;;;;;4976467;28;20463;-70
2021/01/09 02:51:05;;;;;;;6.50;5.90;;;2.80;99.90;;;;;;4979033;28;20434;-69
2021/01/09 02:53:32;;;;;;;19.87;7.40;;;2.90;99.90;;;;;;4976535;28;20582;-70
2021/01/09 02:55:58;;;;;;;14.33;10.10;;;2.90;99.90;;;;;;4977126;28;20506;-73
2021/01/09 02:58:26;;;;;;;17.00;6.87;;;3.00;99.90;;;;;;4974744;28;20462;-71
2021/01/09 03:00:52;;;;;;;13.43;9.07;;;3.00;99.90;;;;;;4977938;28;20915;-68
2021/01/09 03:03:19;;;;;;;8.40;5.20;;;2.90;99.90;;;;;;4980122;28;20538;-73
2021/01/09 03:05:45;;;;;;;12.20;9.23;;;2.80;99.90;;;;;;4981981;28;20520;-70
2021/01/09 03:08:12;;;;;;;12.70;8.30;;;2.90;99.90;;;;;;4978411;28;20466;-70
2021/01/09 03:10:39;;;;;;;18.80;7.63;;;2.70;99.90;;;;;;4970238;28;20434;-71
2021/01/09 03:13:06;;;;;;;9.20;8.30;;;2.70;99.90;;;;;;4960543;28;21045;-72
2021/01/09 03:15:33;;;;;;;12.43;6.77;;;2.70;99.90;;;;;;4976423;28;20896;-68
2021/01/09 03:18:00;;;;;;;7.83;6.13;;;2.80;99.90;;;;;;4979835;28;20454;-69
2021/01/09 03:20:26;;;;;;;11.50;7.30;;;2.90;99.90;;;;;;4977635;28;20491;-70
2021/01/09 03:22:53;;;;;;;6.97;5.70;;;2.80;99.90;;;;;;4977913;28;20461;-73
2021/01/09 03:25:20;;;;;;;10.60;5.80;;;2.70;99.90;;;;;;4977082;28;20486;-71
2021/01/09 03:27:47;;;;;;;7.13;6.27;;;2.60;99.90;;;;;;4976797;28;20573;-70
2021/01/09 03:30:14;;;;;;;9.17;7.10;;;2.60;99.90;;;;;;4963352;28;20429;-71
2021/01/09 03:32:42;;;;;;;11.00;7.57;;;2.60;99.90;;;;;;4976011;28;20848;-70
2021/01/09 03:35:09;;;;;;;12.83;7.20;;;2.60;99.90;;;;;;4973300;28;20536;-69
2021/01/09 03:37:35;;;;;;;13.70;8.03;;;2.70;99.90;;;;;;4979614;28;20457;-70
2021/01/09 03:40:02;;;;;;;9.53;6.63;;;2.80;99.90;;;;;;4973717;28;20513;-71
2021/01/09 03:42:29;;;;;;;13.53;8.10;;;2.80;99.90;;;;;;4976519;28;20437;-72
2021/01/09 03:44:56;;;;;;;8.73;6.03;;;2.70;99.90;;;;;;4958612;28;21274;-72
2021/01/09 03:47:24;;;;;;;10.90;7.30;;;2.80;99.90;;;;;;4980245;28;20546;-71
2021/01/09 03:49:51;;;;;;;14.23;5.73;;;2.70;99.90;;;;;;4978794;28;20535;-70
2021/01/09 03:52:18;;;;;;;11.00;9.20;;;2.70;99.90;;;;;;4975190;28;21619;-70
2021/01/09 03:54:45;;;;;;;7.07;5.77;;;2.50;99.90;;;;;;4972258;28;20556;-68
2021/01/09 03:57:11;;;;;;;9.47;7.40;;;2.40;99.90;;;;;;4976988;28;20445;-73
2021/01/09 03:59:40;;;;;;;17.13;6.87;;;2.40;99.90;;;;;;4971799;28;20437;-71
2021/01/09 04:02:06;;;;;;;13.23;7.27;;;2.50;99.90;;;;;;4975511;28;20521;-72
2021/01/09 04:04:33;;;;;;;9.50;6.67;;;2.50;99.90;;;;;;4974981;28;20485;-70
2021/01/09 04:07:00;;;;;;;13.80;8.27;;;2.50;99.90;;;;;;4978063;28;20468;-73
2021/01/09 04:09:27;;;;;;;12.40;6.50;;;2.60;99.90;;;;;;4982056;28;21069;-72
2021/01/09 04:11:54;;;;;;;10.03;6.20;;;2.60;99.90;;;;;;4972491;28;20507;-71
2021/01/09 04:14:20;;;;;;;6.43;4.63;;;2.70;99.90;;;;;;4973955;28;20469;-71
2021/01/09 04:16:47;;;;;;;10.27;6.90;;;2.80;99.90;;;;;;4976907;28;20940;-71
2021/01/09 04:19:13;;;;;;;9.70;6.10;;;2.80;99.90;;;;;;4973870;28;20462;-70
2021/01/09 04:21:44;;;;;;;9.20;4.47;;;2.80;99.90;;;;;;4976492;28;20465;-70
2021/01/09 04:24:12;;;;;;;8.83;5.80;;;2.70;99.90;;;;;;4977946;28;20481;-69
2021/01/09 04:26:38;;;;;;;14.53;7.40;;;2.70;99.90;;;;;;4976606;28;20444;-72
2021/01/09 04:29:05;;;;;;;6.53;5.07;;;2.60;99.90;;;;;;4972946;28;20477;-68
2021/01/09 04:31:32;;;;;;;9.47;6.50;;;2.50;99.90;;;;;;4972902;28;20973;-70
2021/01/09 04:33:58;;;;;;;9.90;5.23;;;2.60;99.90;;;;;;4972534;28;20535;-72
2021/01/09 04:36:25;;;;;;;10.33;5.00;;;2.50;99.90;;;;;;4971833;28;20467;-71
2021/01/09 04:38:52;;;;;;;10.57;7.37;;;2.30;99.90;;;;;;4975983;28;20569;-70
2021/01/09 04:41:21;;;;;;;8.50;5.90;;;2.40;99.90;;;;;;4976893;28;21388;-70
2021/01/09 04:43:49;;;;;;;8.60;6.60;;;2.30;99.90;;;;;;4978753;28;21682;-71
2021/01/09 04:46:17;;;;;;;14.93;7.33;;;2.40;99.90;;;;;;4975899;28;20512;-71
2021/01/09 04:48:44;;;;;;;13.90;6.23;;;2.40;99.90;;;;;;4974259;28;20516;-70
2021/01/09 04:51:12;;;;;;;10.57;6.90;;;2.60;99.90;;;;;;4979221;28;20455;-73
2021/01/09 04:53:41;;;;;;;8.97;7.47;;;2.50;99.90;;;;;;4973734;28;20548;-71
2021/01/09 04:56:08;;;;;;;7.83;5.20;;;2.50;99.90;;;;;;4977386;28;20500;-71
2021/01/09 04:58:36;;;;;;;20.40;9.17;;;2.60;99.90;;;;;;4979197;28;20433;-70
2021/01/09 05:01:03;;;;;;;10.40;6.27;;;2.50;99.90;;;;;;4975334;28;20463;-72
2021/01/09 05:03:29;;;;;;;10.93;7.13;;;2.60;99.90;;;;;;4975583;28;20510;-73
2021/01/09 05:05:56;;;;;;;12.60;6.30;;;2.60;99.90;;;;;;4975275;28;20465;-74
2021/01/09 05:08:23;;;;;;;7.13;5.43;;;2.40;99.90;;;;;;4975527;28;20524;-74
2021/01/09 05:10:51;;;;;;;11.77;6.10;;;2.30;99.90;;;;;;4984231;28;20592;-74
2021/01/09 05:13:17;;;;;;;8.70;5.47;;;2.40;99.90;;;;;;4979693;28;20988;-71
2021/01/09 05:15:45;;;;;;;5.83;4.60;;;2.50;99.90;;;;;;4974316;28;20453;-73
2021/01/09 05:18:11;;;;;;;9.53;5.70;;;2.50;99.90;;;;;;4981261;28;20572;-71
2021/01/09 05:20:43;;;;;;;15.30;7.20;;;2.60;99.90;;;;;;4975047;28;20528;-69
2021/01/09 05:23:13;;;;;;;8.50;6.20;;;2.30;99.90;;;;;;4974876;28;20483;-71
2021/01/09 05:25:41;;;;;;;13.77;7.33;;;2.40;99.90;;;;;;4976583;28;20459;-71
2021/01/09 05:28:09;;;;;;;10.33;6.87;;;2.50;99.90;;;;;;4977099;28;20458;-72
2021/01/09 05:30:36;;;;;;;14.20;7.40;;;2.60;99.90;;;;;;4981892;28;20445;-73
2021/01/09 05:33:03;;;;;;;8.40;5.90;;;2.60;99.90;;;;;;4979432;28;20481;-69
2021/01/09 05:35:30;;;;;;;21.70;9.50;;;2.70;99.90;;;;;;4976303;28;20481;-74
2021/01/09 05:37:57;;;;;;;13.97;7.00;;;2.60;99.90;;;;;;4978891;28;20545;-70
2021/01/09 05:40:24;;;;;;;7.97;5.73;;;2.70;99.90;;;;;;4974878;28;20465;-73
2021/01/09 05:43:06;;;;;;;10.70;7.37;;;2.50;99.90;;;;;;4977059;28;20437;-71
2021/01/09 05:45:33;;;;;;;13.00;6.50;;;2.40;99.90;;;;;;4980783;28;20524;-70
2021/01/09 05:48:01;;;;;;;13.13;6.77;;;2.30;99.90;;;;;;4972977;28;20520;-69
2021/01/09 05:50:32;;;;;;;10.60;7.20;;;2.40;99.90;;;;;;4972568;28;20524;-70
2021/01/09 05:52:58;;;;;;;13.43;7.90;;;2.30;99.90;;;;;;4973130;28;20505;-72
2021/01/09 05:55:39;;;;;;;8.60;5.23;;;2.50;99.90;;;;;;4971880;28;20495;-71
2021/01/09 05:58:08;;;;;;;8.73;7.30;;;2.60;99.90;;;;;;4973825;28;20444;-72
2021/01/09 06:00:37;;;;;;;14.40;9.50;;;2.50;99.90;;;;;;4977734;28;20903;-70
2021/01/09 06:03:11;;;;;;;13.57;8.60;;;2.40;99.90;;;;;;4971597;28;20438;-72
2021/01/09 06:05:46;;;;;;;9.03;5.30;;;2.40;99.90;;;;;;4974116;28;20521;-69
2021/01/09 06:08:21;;;;;;;17.93;8.40;;;2.60;99.90;;;;;;4972814;28;20455;-70
2021/01/09 06:10:50;;;;;;;10.07;7.87;;;2.60;99.90;;;;;;4977852;28;20425;-72
2021/01/09 06:13:19;;;;;;;13.80;7.90;;;2.50;99.90;;;;;;4973581;28;20505;-68
2021/01/09 06:15:47;;;;;;;20.10;9.30;;;2.50;99.90;;;;;;4977535;28;20468;-68
2021/01/09 06:18:14;;;;;;;14.60;8.27;;;2.40;99.90;;;;;;4972218;28;20433;-70
2021/01/09 06:20:42;;;;;;;10.77;9.60;;;2.60;99.90;;;;;;4975504;28;20495;-72
2021/01/09 06:23:09;;;;;;;10.93;8.90;;;2.60;99.90;;;;;;4969557;28;20466;-72
2021/01/09 06:25:36;;;;;;;12.50;5.13;;;2.60;99.90;;;;;;4969641;28;20462;-70
2021/01/09 06:28:05;;;;;;;17.00;7.30;;;2.50;99.90;;;;;;4971264;28;20461;-72
2021/01/09 06:30:34;;;;;;;8.93;7.10;;;2.40;99.90;;;;;;4970444;28;20460;-71
2021/01/09 06:33:03;;;;;;;15.37;7.63;;;2.50;99.90;;;;;;4972805;28;20516;-70
2021/01/09 06:35:32;;;;;;;19.77;10.10;;;2.30;99.90;;;;;;4974670;28;20485;-70
2021/01/09 06:38:01;;;;;;;11.13;7.17;;;2.20;99.90;;;;;;4973044;28;21273;-70
2021/01/09 06:40:28;;;;;;;8.30;5.93;;;2.20;99.90;;;;;;4978834;28;20440;-71
2021/01/09 06:42:55;;;;;;;11.93;8.30;;;2.30;99.90;;;;;;4978991;28;20541;-69
2021/01/09 06:45:23;;;;;;;12.33;6.33;;;2.40;99.90;;;;;;4973627;28;20552;-74
2021/01/09 06:47:58;;;;;;;13.60;6.30;;;2.50;99.90;;;;;;4975530;28;20433;-70
2021/01/09 06:50:33;;;;;;;6.00;5.40;;;2.50;99.90;;;;;;4976221;28;20454;-70
2021/01/09 06:53:01;;;;;;;10.97;6.30;;;2.60;99.90;;;;;;4973366;28;20458;-71
2021/01/09 06:55:52;;;;;;;10.63;6.33;;;2.50;99.90;;;;;;4973593;28;21203;-71
2021/01/09 06:58:25;;;;;;;15.37;8.10;;;2.40;99.90;;;;;;4976973;28;20482;-69
2021/01/09 07:00:54;;;;;;;8.30;5.97;;;2.30;99.90;;;;;;4975491;28;20453;-71
2021/01/09 07:03:22;;;;;;;9.60;6.50;;;2.40;99.90;;;;;;4972471;28;20534;-71
2021/01/09 07:05:50;;;;;;;9.83;8.63;;;2.40;99.90;;;;;;4975763;28;20461;-72
2021/01/09 07:08:22;;;;;;;15.97;8.37;;;2.40;99.90;;;;;;4977050;28;20585;-72
2021/01/09 07:10:51;;;;;;;14.50;7.17;;;2.40;99.90;;;;;;4972846;28;20459;-71
2021/01/09 07:13:18;;;;;;;10.40;9.07;;;2.40;99.90;;;;;;4974239;28;20521;-71
2021/01/09 07:15:45;;;;;;;17.23;6.50;;;2.50;99.90;;;;;;4978306;28;20516;-68
2021/01/09 07:18:12;;;;;;;15.20;7.77;;;2.60;99.90;;;;;;4976416;28;20463;-71
2021/01/09 07:20:41;;;;;;;13.07;6.43;;;2.60;99.90;;;;;;4975799;28;20437;-70
2021/01/09 07:23:09;;;;;;;8.57;5.40;;;2.60;99.90;;;;;;4971892;28;20505;-71
2021/01/09 07:25:38;;;;;;;12.90;7.93;;;2.70;99.90;;;;;;4977633;28;20455;-72
2021/01/09 07:28:09;;;;;;;16.73;8.63;;;2.60;99.90;;;;;;4973305;28;20473;-71
2021/01/09 07:30:35;;;;;;;18.33;10.00;;;2.60;99.90;;;;;;4977543;28;20534;-70
2021/01/09 07:33:05;;;;;;;9.03;7.00;;;2.70;99.90;;;;;;4977802;28;20434;-73
2021/01/09 07:35:32;;;;;;;13.47;7.67;;;2.70;99.90;;;;;;4973579;28;20890;-71
2021/01/09 07:38:00;;;;;;;13.83;8.83;;;2.60;99.90;;;;;;4974001;28;20467;-72
2021/01/09 07:40:32;;;;;;;15.93;7.17;;;2.60;99.90;;;;;;4974518;28;20455;-71
2021/01/09 07:43:00;;;;;;;19.40;8.87;;;2.60;99.90;;;;;;4972452;28;21269;-74
2021/01/09 07:45:31;;;;;;;18.37;11.13;;;2.50;99.90;;;;;;4971545;28;20453;-70
2021/01/09 07:47:58;;;;;;;11.50;7.93;;;2.60;99.90;;;;;;4971660;28;20461;-71
2021/01/09 07:50:25;;;;;;;11.20;4.60;;;2.40;99.90;;;;;;4977628;28;20429;-72
2021/01/09 07:53:05;;;;;;;28.87;6.30;;;2.50;99.90;;;;;;4979458;28;20468;-69
2021/01/09 07:55:44;;;;;;;18.53;8.83;;;2.60;99.90;;;;;;4980239;28;20456;-70
2021/01/09 07:58:12;;;;;;;18.60;8.37;;;2.60;99.90;;;;;;4975261;28;21139;-72
2021/01/09 08:00:42;;;;;;;13.93;7.80;;;2.60;99.90;;;;;;4972530;28;20478;-73
2021/01/09 08:03:10;;;;;;;11.97;6.67;;;2.70;99.90;;;;;;4975084;28;20533;-70
2021/01/09 08:05:37;;;;;;;11.40;8.47;;;2.70;99.90;;;;;;4971024;28;20516;-70
2021/01/09 08:08:05;;;;;;;12.50;7.77;;;2.70;99.90;;;;;;4978244;28;20496;-73
2021/01/09 08:10:32;;;;;;;16.20;5.83;;;2.70;99.90;;;;;;4976344;28;20437;-74
2021/01/09 08:13:00;;;;;;;15.87;7.60;;;2.60;99.90;;;;;;4978884;28;20466;-69
2021/01/09 08:15:29;;;;;;;12.23;7.60;;;2.80;99.90;;;;;;4976824;28;20484;-70
2021/01/09 08:17:58;;;;;;;9.50;7.13;;;2.80;99.90;;;;;;4974964;28;20466;-70
2021/01/09 08:20:25;;;;;;;15.83;7.67;;;2.80;99.90;;;;;;4977901;28;20436;-73
2021/01/09 08:22:53;;;;;;;18.37;10.70;;;2.80;99.90;;;;;;4979603;28;20458;-72
2021/01/09 08:25:21;;;;;;;12.97;6.90;;;2.80;99.90;;;;;;4975009;28;20569;-72
2021/01/09 08:27:50;;;;;;;9.83;6.47;;;2.70;99.90;;;;;;4975534;28;20458;-72
2021/01/09 08:30:18;;;;;;;12.60;5.13;;;2.70;99.90;;;;;;4977704;28;20433;-73
2021/01/09 08:32:46;;;;;;;9.50;7.00;;;2.70;99.90;;;;;;4978744;28;20469;-71
2021/01/09 08:35:14;;;;;;;9.93;4.90;;;2.50;99.90;;;;;;4972306;28;20487;-72
2021/01/09 08:37:41;;;;;;;4.47;3.60;;;2.60;99.90;;;;;;4978373;28;20469;-72
2021/01/09 08:40:19;;;;;;;16.83;9.27;;;2.60;99.90;;;;;;4980369;28;20775;-72
2021/01/09 08:42:56;;;;;;;14.00;6.33;;;2.70;99.90;;;;;;4978148;28;20440;-72
2021/01/09 08:45:45;;;;;;;8.27;5.73;;;2.70;99.90;;;;;;4979120;28;20453;-72
2021/01/09 08:48:19;;;;;;;18.40;7.80;;;2.70;99.90;;;;;;4976899;28;20479;-70
2021/01/09 08:51:02;;;;;;;16.10;9.30;;;2.70;99.90;;;;;;4983393;28;20503;-73
2021/01/09 08:53:44;;;;;;;15.47;7.73;;;2.50;99.90;;;;;;4985162;28;20461;-68
2021/01/09 08:56:11;;;;;;;13.97;7.60;;;2.60;99.90;;;;;;4991251;28;20458;-71
2021/01/09 08:58:39;;;;;;;11.20;7.27;;;2.60;99.90;;;;;;5001711;28;20433;-71
2021/01/09 09:01:07;;;;;;;20.13;9.10;;;2.60;99.90;;;;;;4998377;28;20841;-70
2021/01/09 09:03:42;;;;;;;9.20;6.67;;;2.60;99.90;;;;;;4998430;28;20458;-73
2021/01/09 09:06:10;;;;;;;8.20;3.73;;;2.60;99.90;;;;;;4996077;28;21425;-73
2021/01/09 09:08:37;;;;;;;22.83;9.77;;;2.80;99.90;;;;;;4991450;28;20462;-73
2021/01/09 09:11:04;;;;;;;17.03;6.37;;;2.80;99.90;;;;;;4989765;28;20456;-72
2021/01/09 09:13:31;;;;;;;23.50;9.03;;;2.80;99.90;;;;;;4991447;28;20502;-71
2021/01/09 09:15:58;;;;;;;13.50;8.80;;;2.80;99.90;;;;;;4996126;28;21140;-71
2021/01/09 09:18:33;;;;;;;17.97;10.40;;;2.80;99.90;;;;;;4997613;28;20436;-73
2021/01/09 09:21:01;;;;;;;24.53;10.77;;;2.80;99.90;;;;;;4998081;28;20427;-71
2021/01/09 09:23:27;;;;;;;11.03;9.33;;;2.90;99.90;;;;;;4993164;28;20453;-70
2021/01/09 09:26:13;;;;;;;16.87;8.17;;;3.00;99.90;;;;;;4993529;28;20493;-71
2021/01/09 09:28:45;;;;;;;12.80;7.77;;;2.70;99.90;;;;;;4991638;28;20504;-71
2021/01/09 09:31:22;;;;;;;14.03;8.50;;;2.50;99.90;;;;;;4990572;28;20456;-73
2021/01/09 09:34:02;;;;;;;24.60;10.47;;;2.50;99.90;;;;;;4980955;28;21205;-71
2021/01/09 09:36:31;;;;;;;10.00;6.30;;;2.60;99.90;;;;;;4978319;28;20448;-73
2021/01/09 09:38:57;;;;;;;8.40;6.77;;;2.60;99.90;;;;;;4977101;28;20437;-73
2021/01/09 09:41:24;;;;;;;8.60;7.40;;;2.70;99.90;;;;;;4978507;28;20840;-70
2021/01/09 09:43:58;;;;;;;8.27;5.93;;;2.70;99.90;;;;;;4976736;28;20544;-71
2021/01/09 09:46:25;;;;;;;15.57;10.30;;;2.80;99.90;;;;;;4974868;28;20430;-71
2021/01/09 09:48:53;;;;;;;17.53;12.73;;;2.90;99.90;;;;;;4987169;28;20537;-71
2021/01/09 09:51:19;;;;;;;12.57;8.93;;;3.00;99.90;;;;;;4987091;28;20486;-72
2021/01/09 09:53:54;;;;;;;18.33;8.63;;;2.80;99.90;;;;;;4981221;28;20464;-68
2021/01/09 09:56:22;;;;;;;23.47;9.47;;;2.90;99.90;;;;;;4986909;28;20461;-70
2021/01/09 09:59:00;;;;;;;19.03;9.47;;;3.10;99.90;;;;;;4981407;28;20456;-71
2021/01/09 10:01:29;;;;;;;19.90;9.93;;;3.00;99.90;;;;;;4986982;28;20849;-71
2021/01/09 10:03:56;;;;;;;29.80;14.23;;;3.00;99.90;;;;;;4981550;28;20474;-73
2021/01/09 10:06:33;;;;;;;41.10;13.90;;;2.90;99.90;;;;;;4980863;28;20463;-73
2021/01/09 10:09:22;;;;;;;23.30;12.57;;;3.10;99.90;;;;;;4981297;28;20446;-73
2021/01/09 10:11:49;;;;;;;28.00;14.20;;;3.30;99.90;;;;;;4978921;28;20432;-71
2021/01/09 10:14:16;;;;;;;28.53;13.33;;;3.20;99.90;;;;;;4976556;28;20468;-73
2021/01/09 10:16:43;;;;;;;17.83;11.70;;;3.30;99.90;;;;;;4979685;28;20461;-74
2021/01/09 10:19:11;;;;;;;33.47;12.77;;;3.30;99.90;;;;;;4978252;28;20493;-71
2021/01/09 10:21:38;;;;;;;25.60;12.27;;;3.30;99.90;;;;;;4980685;28;20436;-73
2021/01/09 10:24:06;;;;;;;34.20;15.43;;;3.40;99.90;;;;;;4978236;28;20536;-71
2021/01/09 10:26:35;;;;;;;25.37;14.13;;;3.30;99.90;;;;;;4978647;28;20863;-74
2021/01/09 10:29:03;;;;;;;39.30;17.23;;;3.30;99.90;;;;;;4976507;28;20478;-71
2021/01/09 10:31:31;;;;;;;47.50;18.13;;;3.30;99.90;;;;;;4979521;28;20820;-73
2021/01/09 10:33:57;;;;;;;40.47;16.17;;;3.30;99.90;;;;;;4978184;28;20961;-70
2021/01/09 10:36:29;;;;;;;32.37;17.20;;;3.40;99.90;;;;;;4977685;28;21027;-74
2021/01/09 10:38:55;;;;;;;34.87;15.30;;;3.60;99.90;;;;;;4985926;28;20492;-73
2021/01/09 10:41:24;;;;;;;46.77;17.30;;;3.60;99.90;;;;;;4980790;28;20492;-70
2021/01/09 10:43:52;;;;;;;27.03;14.17;;;3.60;99.90;;;;;;4982684;28;20457;-72
2021/01/09 10:46:20;;;;;;;39.70;18.00;;;3.60;99.90;;;;;;4981286;28;21029;-72
2021/01/09 10:48:47;;;;;;;42.00;23.67;;;3.70;99.90;;;;;;4987115;28;20503;-72
2021/01/09 10:51:15;;;;;;;48.30;21.27;;;3.80;99.90;;;;;;4983887;28;20559;-72
2021/01/09 10:53:42;;;;;;;51.27;23.40;;;3.90;99.90;;;;;;4978285;28;20518;-72
2021/01/09 10:56:08;;;;;;;51.03;22.93;;;4.00;99.90;;;;;;4978304;28;20464;-71
2021/01/09 10:58:35;;;;;;;19.03;9.27;;;4.00;99.90;;;;;;4983461;28;20462;-72
2021/01/09 11:01:03;;;;;;;33.47;15.03;;;3.90;99.90;;;;;;4967249;28;20557;-72
2021/01/09 11:03:29;;;;;;;38.37;17.07;;;3.80;99.90;;;;;;4983021;28;20503;-71
2021/01/09 11:05:56;;;;;;;51.07;15.30;;;3.90;99.90;;;;;;4984439;28;20525;-72
2021/01/09 11:08:23;;;;;;;20.13;10.10;;;3.90;99.90;;;;;;4977543;28;20514;-72
2021/01/09 11:10:50;;;;;;;35.23;12.47;;;4.00;99.90;;;;;;4979028;28;20494;-71
2021/01/09 11:13:17;;;;;;;48.70;19.83;;;4.10;99.90;;;;;;4981332;28;20455;-71
2021/01/09 11:15:44;;;;;;;36.90;19.87;;;4.10;99.90;;;;;;4982675;28;20433;-71
2021/01/09 11:18:12;;;;;;;43.77;19.43;;;4.10;99.90;;;;;;4981278;28;20447;-72
2021/01/09 11:20:38;;;;;;;41.13;21.67;;;4.20;99.90;;;;;;4981293;28;20827;-71
2021/01/09 11:23:05;;;;;;;36.50;16.63;;;4.40;99.90;;;;;;4980934;28;20470;-73
2021/01/09 11:25:32;;;;;;;45.47;18.07;;;4.40;99.90;;;;;;4978230;28;20474;-72
2021/01/09 11:27:59;;;;;;;27.80;11.60;;;4.30;99.90;;;;;;4974349;28;20432;-71
2021/01/09 11:30:30;;;;;;;48.20;17.10;;;4.20;99.90;;;;;;4979882;28;21400;-73
2021/01/09 11:32:57;;;;;;;33.57;17.07;;;4.40;99.90;;;;;;4980604;28;20864;-73
2021/01/09 11:35:24;;;;;;;31.53;15.77;;;4.30;99.90;;;;;;4980738;28;20482;-73
2021/01/09 11:37:51;;;;;;;46.40;18.40;;;4.30;99.90;;;;;;4981958;28;20462;-73
2021/01/09 11:40:17;;;;;;;36.97;18.50;;;4.50;99.90;;;;;;4981078;28;20465;-72
2021/01/09 11:42:44;;;;;;;34.50;15.53;;;4.40;99.90;;;;;;4973667;28;20940;-73
2021/01/09 11:45:12;;;;;;;33.27;12.87;;;4.30;99.90;;;;;;4972725;28;20467;-72
2021/01/09 11:47:41;;;;;;;30.20;12.37;;;4.00;99.90;;;;;;4980891;28;20437;-72
2021/01/09 11:50:08;;;;;;;33.43;19.00;;;4.00;99.90;;;;;;4979825;28;20506;-70
2021/01/09 11:52:36;;;;;;;27.00;16.73;;;4.10;99.90;;;;;;4979248;28;20429;-69
2021/01/09 11:55:03;;;;;;;54.37;19.93;;;4.20;99.90;;;;;;4977725;28;20541;-71
2021/01/09 11:57:30;;;;;;;29.43;16.23;;;4.20;99.90;;;;;;4979914;28;20457;-71
2021/01/09 11:59:56;;;;;;;41.17;15.50;;;4.20;99.90;;;;;;4978304;28;20491;-70
2021/01/09 12:02:23;;;;;;;21.87;13.33;;;4.30;99.90;;;;;;4981181;28;20440;-70
2021/01/09 12:04:50;;;;;;;33.03;14.90;;;4.40;99.90;;;;;;4977518;28;20521;-73
2021/01/09 12:07:17;;;;;;;41.73;17.50;;;4.40;99.90;;;;;;4977376;28;20509;-68
2021/01/09 12:09:44;;;;;;;38.70;12.37;;;4.50;99.90;;;;;;4976536;28;20805;-73
2021/01/09 12:12:11;;;;;;;40.03;18.00;;;4.40;99.90;;;;;;4978718;28;20464;-71
2021/01/09 12:14:38;;;;;;;22.97;11.30;;;4.30;99.90;;;;;;4974218;28;20568;-72
2021/01/09 12:17:04;;;;;;;18.33;11.50;;;4.30;99.90;;;;;;4978167;28;20467;-69
2021/01/09 12:19:31;;;;;;;20.23;11.70;;;4.10;99.90;;;;;;4978162;28;20482;-71
2021/01/09 12:21:58;;;;;;;14.00;8.57;;;4.00;99.90;;;;;;4975304;28;20438;-69
2021/01/09 12:24:25;;;;;;;18.50;12.07;;;4.00;99.90;;;;;;4972686;28;20487;-73
2021/01/09 12:26:53;;;;;;;6.17;4.73;;;3.90;99.90;;;;;;4982159;28;20464;-72
2021/01/09 12:29:20;;;;;;;14.10;7.43;;;3.90;99.90;;;;;;4979691;28;20472;-70
2021/01/09 12:31:47;;;;;;;28.57;10.47;;;4.00;99.90;;;;;;4977557;28;20459;-69
2021/01/09 12:34:14;;;;;;;25.60;9.10;;;4.10;99.90;;;;;;4974230;28;20521;-72
2021/01/09 12:36:41;;;;;;;23.77;12.17;;;4.20;99.90;;;;;;4978406;28;20437;-71
2021/01/09 12:39:08;;;;;;;19.10;9.77;;;4.30;99.90;;;;;;4980842;28;20812;-74
2021/01/09 12:41:36;;;;;;;11.73;10.13;;;4.20;99.90;;;;;;4979417;28;20470;-73
2021/01/09 12:44:05;;;;;;;26.00;11.87;;;4.10;99.90;;;;;;4975503;28;21069;-72
2021/01/09 12:46:41;;;;;;;18.83;11.47;;;4.10;99.90;;;;;;4972586;28;20442;-72
2021/01/09 12:49:09;;;;;;;20.97;12.83;;;4.20;99.90;;;;;;4978335;28;20514;-73
2021/01/09 12:51:35;;;;;;;19.17;11.17;;;4.20;99.90;;;;;;4972998;28;20471;-71
2021/01/09 12:54:02;;;;;;;16.57;9.93;;;4.30;99.90;;;;;;4975080;28;20584;-70